createdAt,value
2019-05-17T00:01:52.250Z,12.10
2019-05-17T00:04:23.302Z,12.08
2019-05-17T00:06:56.859Z,12.05
2019-05-17T00:09:27.214Z,12.07
2019-05-17T00:11:58.230Z,12.02
2019-05-17T00:14:29.394Z,12.09
2019-05-17T00:17:00.406Z,12.10
2019-05-17T00:19:31.690Z,12.06
2019-05-17T00:22:03.325Z,11.91
2019-05-17T00:24:34.354Z,11.91
2019-05-17T00:27:06.873Z,11.92
2019-05-17T00:29:38.214Z,11.91
2019-05-17T00:32:09.203Z,11.88
2019-05-17T00:34:40.247Z,11.92
2019-05-17T00:37:11.407Z,11.94
2019-05-17T00:39:43.593Z,11.96
2019-05-17T00:42:16.854Z,11.92
2019-05-17T00:44:47.553Z,11.89
2019-05-17T00:47:18.665Z,11.83
2019-05-17T00:49:49.813Z,11.86
2019-05-17T00:52:20.884Z,11.87
2019-05-17T00:54:51.924Z,11.80
2019-05-17T00:57:22.915Z,11.80
2019-05-17T00:59:56.442Z,11.81
2019-05-17T01:02:27.195Z,11.84
2019-05-17T01:04:58.795Z,11.87
2019-05-17T01:07:29.819Z,11.79
2019-05-17T01:10:00.965Z,11.75
2019-05-17T01:12:32.134Z,11.77
2019-05-17T01:15:03.223Z,11.84
2019-05-17T01:17:36.409Z,11.74
2019-05-17T01:20:07.681Z,11.62
2019-05-17T01:22:39.715Z,11.64
2019-05-17T01:25:11.680Z,11.65
2019-05-17T01:27:43.696Z,11.65
2019-05-17T01:30:17.265Z,11.66
2019-05-17T01:32:47.668Z,11.59
2019-05-17T01:35:18.722Z,11.55
2019-05-17T01:37:49.722Z,11.60
2019-05-17T01:40:20.995Z,11.53
2019-05-17T01:42:51.989Z,11.54
2019-05-17T01:45:23.208Z,11.54
2019-05-17T01:47:56.311Z,11.50
2019-05-17T01:50:26.999Z,11.52
2019-05-17T01:52:57.982Z,11.53
2019-05-17T01:55:29.163Z,11.41
2019-05-17T01:58:00.145Z,11.43
2019-05-17T02:00:31.339Z,11.35
2019-05-17T02:03:02.402Z,11.18
2019-05-17T02:05:33.925Z,11.16
2019-05-17T02:08:06.624Z,11.14
2019-05-17T02:10:38.030Z,11.09
2019-05-17T02:13:09.022Z,11.17
2019-05-17T02:15:40.188Z,11.14
2019-05-17T02:18:11.414Z,11.12
2019-05-17T02:20:43.682Z,11.13
2019-05-17T02:23:17.247Z,11.20
2019-05-17T02:25:47.909Z,11.12
2019-05-17T02:28:18.979Z,11.06
2019-05-17T02:30:53.040Z,10.95
2019-05-17T02:33:23.784Z,10.99
2019-05-17T02:35:54.932Z,10.96
2019-05-17T02:38:25.953Z,11.01
2019-05-17T02:40:56.999Z,10.96
2019-05-17T02:43:28.246Z,10.93
2019-05-17T02:45:59.286Z,10.89
2019-05-17T02:48:33.417Z,10.88
2019-05-17T02:51:03.662Z,10.90
2019-05-17T02:53:36.049Z,10.87
2019-05-17T02:56:07.264Z,10.77
2019-05-17T02:58:38.269Z,10.76
2019-05-17T03:01:12.448Z,10.62
2019-05-17T03:03:43.911Z,10.69
2019-05-17T03:06:14.986Z,10.66
2019-05-17T03:08:46.043Z,10.64
2019-05-17T03:11:17.110Z,10.60
2019-05-17T03:13:48.186Z,10.53
2019-05-17T03:16:23.384Z,10.52
2019-05-17T03:18:53.177Z,10.56
2019-05-17T03:21:24.234Z,10.53
2019-05-17T03:23:55.291Z,10.51
2019-05-17T03:26:26.427Z,10.44
2019-05-17T03:28:57.418Z,10.48
2019-05-17T03:31:34.473Z,10.39
2019-05-17T03:34:06.688Z,10.49
2019-05-17T03:36:36.660Z,10.42
2019-05-17T03:39:08.313Z,10.28
2019-05-17T03:41:42.654Z,10.30
2019-05-17T03:44:13.574Z,10.13
2019-05-17T03:46:45.183Z,10.09
2019-05-17T03:49:16.310Z,10.09
2019-05-17T03:51:47.345Z,9.99
2019-05-17T03:54:18.461Z,9.98
2019-05-17T03:56:49.460Z,9.87
2019-05-17T03:59:24.045Z,9.89
2019-05-17T04:01:53.416Z,9.95
2019-05-17T04:04:24.497Z,10.01
2019-05-17T04:06:55.504Z,10.04
2019-05-17T04:09:26.485Z,10.06
2019-05-17T04:11:57.593Z,10.09
2019-05-17T04:14:28.582Z,10.06
2019-05-17T04:17:02.867Z,10.03
2019-05-17T04:19:33.660Z,10.14
2019-05-17T04:22:05.025Z,10.07
2019-05-17T04:24:36.068Z,10.00
2019-05-17T04:27:07.205Z,10.13
2019-05-17T04:29:38.261Z,10.13
2019-05-17T04:32:12.678Z,10.04
2019-05-17T04:34:43.657Z,10.24
2019-05-17T04:37:15.039Z,10.18
2019-05-17T04:39:46.036Z,10.17
2019-05-17T04:42:17.195Z,10.13
2019-05-17T04:44:48.246Z,10.17
2019-05-17T04:47:22.697Z,10.12
2019-05-17T04:49:53.630Z,10.14
2019-05-17T04:52:24.937Z,10.18
2019-05-17T04:54:55.995Z,10.16
2019-05-17T04:57:27.133Z,10.31
2019-05-17T04:59:58.200Z,10.40
2019-05-17T05:02:29.243Z,10.41
2019-05-17T05:05:03.385Z,10.47
2019-05-17T05:07:34.691Z,10.46
2019-05-17T05:10:07.334Z,10.55
2019-05-17T05:12:38.404Z,10.58
2019-05-17T05:15:12.028Z,10.68
2019-05-17T05:17:43.747Z,10.63
2019-05-17T05:20:14.957Z,10.70
2019-05-17T05:22:45.971Z,10.81
2019-05-17T05:25:17.346Z,10.87
2019-05-17T05:27:48.370Z,10.91
2019-05-17T05:30:19.534Z,10.96
2019-05-17T05:32:52.484Z,11.03
2019-05-17T05:35:23.375Z,11.12
2019-05-17T05:37:55.460Z,11.17
2019-05-17T05:40:26.603Z,11.27
2019-05-17T05:42:57.637Z,11.39
2019-05-17T05:45:28.612Z,11.45
2019-05-17T05:48:01.752Z,11.56
2019-05-17T05:50:32.486Z,11.55
2019-05-17T05:53:03.545Z,11.64
2019-05-17T05:55:34.844Z,11.71
2019-05-17T05:58:05.944Z,11.92
2019-05-17T06:00:36.999Z,11.98
2019-05-17T06:03:08.027Z,12.05
2019-05-17T06:05:39.089Z,12.16
2019-05-17T06:08:12.214Z,12.28
2019-05-17T06:10:44.140Z,12.24
2019-05-17T06:13:15.187Z,12.37
2019-05-17T06:15:46.267Z,12.47
2019-05-17T06:18:18.292Z,12.51
2019-05-17T06:20:49.280Z,12.62
2019-05-17T06:23:20.544Z,12.68
2019-05-17T06:25:52.254Z,12.81
2019-05-17T06:28:23.333Z,12.93
2019-05-17T06:30:54.402Z,13.07
2019-05-17T06:33:30.559Z,13.10
2019-05-17T06:35:58.204Z,13.17
2019-05-17T06:38:29.418Z,13.25
2019-05-17T06:41:01.623Z,13.35
2019-05-17T06:43:32.923Z,13.44
2019-05-17T06:46:03.921Z,13.50
2019-05-17T06:48:35.105Z,13.63
2019-05-17T06:51:06.131Z,13.74
2019-05-17T06:53:37.250Z,13.84
2019-05-17T06:56:08.337Z,13.89
2019-05-17T06:58:39.476Z,14.04
2019-05-17T07:01:10.491Z,14.14
2019-05-17T07:03:41.556Z,14.27
2019-05-17T07:06:14.289Z,14.37
2019-05-17T07:08:45.293Z,14.42
2019-05-17T07:11:16.455Z,14.53
2019-05-17T07:13:49.505Z,14.60
2019-05-17T07:16:20.275Z,14.69
2019-05-17T07:18:51.561Z,14.76
2019-05-17T07:21:22.563Z,14.88
2019-05-17T07:23:53.610Z,15.00
2019-05-17T07:26:24.693Z,15.11
2019-05-17T07:28:55.754Z,15.21
2019-05-17T07:31:27.081Z,15.31
2019-05-17T07:33:59.845Z,15.42
2019-05-17T07:36:31.004Z,15.53
2019-05-17T07:39:02.316Z,15.77
2019-05-17T07:41:33.507Z,15.79
2019-05-17T07:44:04.632Z,15.98
2019-05-17T07:46:35.651Z,15.99
2019-05-17T07:49:06.724Z,16.11
2019-05-17T07:51:39.603Z,16.12
2019-05-17T07:54:11.862Z,16.19
2019-05-17T07:56:44.089Z,16.28
2019-05-17T07:59:15.177Z,16.21
2019-05-17T08:01:46.261Z,16.37
2019-05-17T08:04:17.280Z,16.54
2019-05-17T08:06:50.473Z,16.68
2019-05-17T08:09:21.047Z,16.83
2019-05-17T08:11:52.117Z,16.79
2019-05-17T08:14:29.554Z,17.00
2019-05-17T08:16:56.014Z,17.05
2019-05-17T08:19:29.760Z,17.15
2019-05-17T08:21:59.990Z,17.14
2019-05-17T08:24:31.153Z,17.21
2019-05-17T08:27:02.328Z,17.31
2019-05-17T08:29:33.478Z,17.29
2019-05-17T08:32:04.797Z,17.47
2019-05-17T08:34:36.064Z,17.43
2019-05-17T08:37:09.369Z,17.52
2019-05-17T08:39:41.019Z,17.56
2019-05-17T08:42:12.051Z,17.63
2019-05-17T08:44:44.431Z,17.64
2019-05-17T08:47:15.471Z,17.71
2019-05-17T08:49:46.568Z,17.83
2019-05-17T08:52:20.039Z,17.88
2019-05-17T08:54:51.204Z,17.96
2019-05-17T08:57:22.280Z,18.14
2019-05-17T08:59:53.317Z,18.16
2019-05-17T09:02:24.574Z,18.19
2019-05-17T09:04:55.694Z,18.25
2019-05-17T09:07:26.874Z,18.39
2019-05-17T09:09:57.960Z,18.46
2019-05-17T09:12:29.979Z,18.44
2019-05-17T09:15:01.228Z,18.57
2019-05-17T09:17:32.480Z,18.65
2019-05-17T09:20:03.581Z,18.79
2019-05-17T09:22:35.565Z,18.85
2019-05-17T09:25:07.367Z,18.89
2019-05-17T09:27:39.652Z,18.88
2019-05-17T09:30:13.300Z,18.90
2019-05-17T09:32:44.495Z,18.97
2019-05-17T09:35:16.099Z,19.05
2019-05-17T09:37:49.723Z,19.00
2019-05-17T09:40:20.206Z,19.04
2019-05-17T09:42:51.341Z,19.14
2019-05-17T09:45:22.982Z,19.19
2019-05-17T09:47:54.064Z,19.39
2019-05-17T09:50:25.147Z,19.46
2019-05-17T09:52:56.229Z,19.51
2019-05-17T09:55:27.428Z,19.56
2019-05-17T09:58:00.272Z,19.61
2019-05-17T10:00:32.275Z,19.65
2019-05-17T10:03:03.447Z,19.64
2019-05-17T10:05:35.900Z,19.71
2019-05-17T10:08:06.975Z,19.84
2019-05-17T10:10:40.260Z,19.96
2019-05-17T10:13:10.894Z,19.97
2019-05-17T10:15:42.035Z,19.91
2019-05-17T10:18:14.730Z,19.95
2019-05-17T10:20:45.817Z,19.97
2019-05-17T10:23:19.513Z,19.97
2019-05-17T10:25:49.710Z,20.00
2019-05-17T10:28:21.641Z,19.83
2019-05-17T10:30:52.899Z,19.84
2019-05-17T10:33:23.966Z,19.85
2019-05-17T10:35:55.042Z,19.85
2019-05-17T10:38:26.110Z,19.95
2019-05-17T10:40:57.213Z,20.05
2019-05-17T10:43:29.852Z,20.09
2019-05-17T10:46:01.066Z,20.11
2019-05-17T10:48:32.190Z,20.21
2019-05-17T10:51:03.331Z,20.28
2019-05-17T10:53:35.752Z,20.40
2019-05-17T10:56:06.849Z,20.42
2019-05-17T10:58:39.943Z,20.43
2019-05-17T11:01:10.938Z,20.41
2019-05-17T11:03:42.159Z,20.33
2019-05-17T11:06:14.915Z,20.31
2019-05-17T11:08:45.984Z,20.37
2019-05-17T11:11:19.828Z,20.46
2019-05-17T11:13:52.917Z,20.61
2019-05-17T11:16:23.003Z,20.68
2019-05-17T11:18:54.219Z,20.75
2019-05-17T11:21:25.363Z,20.89
2019-05-17T11:23:56.482Z,20.87
2019-05-17T11:26:27.580Z,21.03
2019-05-17T11:28:58.659Z,21.22
2019-05-17T11:31:29.906Z,21.22
2019-05-17T11:34:00.980Z,21.30
2019-05-17T11:36:32.047Z,21.35
2019-05-17T11:39:05.045Z,21.39
2019-05-17T11:41:36.163Z,21.39
2019-05-17T11:44:07.249Z,21.39
2019-05-17T11:46:38.435Z,21.33
2019-05-17T11:49:09.612Z,21.42
2019-05-17T11:51:40.651Z,21.53
2019-05-17T11:54:12.852Z,21.54
2019-05-17T11:56:44.868Z,21.56
2019-05-17T11:59:15.933Z,21.52
2019-05-17T12:01:47.023Z,21.52
2019-05-17T12:04:18.514Z,21.51
2019-05-17T12:06:49.573Z,21.47
2019-05-17T12:09:20.658Z,21.43
2019-05-17T12:11:51.760Z,21.43
2019-05-17T12:14:22.815Z,21.45
2019-05-17T12:16:53.871Z,21.46
2019-05-17T12:19:26.109Z,21.45
2019-05-17T12:21:57.248Z,21.43
2019-05-17T12:24:28.464Z,21.38
2019-05-17T12:26:59.689Z,21.29
2019-05-17T12:29:30.795Z,21.47
2019-05-17T12:32:02.908Z,21.48
2019-05-17T12:34:33.973Z,21.50
2019-05-17T12:37:05.173Z,21.47
2019-05-17T12:39:36.292Z,21.49
2019-05-17T12:42:07.348Z,21.58
2019-05-17T12:44:38.732Z,21.61
2019-05-17T12:47:09.753Z,21.70
2019-05-17T12:49:40.843Z,21.67
2019-05-17T12:52:11.966Z,21.67
2019-05-17T12:54:43.037Z,21.83
2019-05-17T12:57:14.832Z,21.95
2019-05-17T12:59:45.906Z,22.02
2019-05-17T13:02:17.859Z,22.01
2019-05-17T13:04:48.942Z,21.97
2019-05-17T13:07:19.953Z,21.96
2019-05-17T13:09:51.087Z,21.93
2019-05-17T13:12:22.285Z,21.86
2019-05-17T13:14:53.570Z,21.81
2019-05-17T13:17:24.714Z,21.71
2019-05-17T13:19:55.792Z,21.70
2019-05-17T13:22:26.897Z,21.80
2019-05-17T13:24:58.102Z,21.81
2019-05-17T13:27:29.187Z,21.76
2019-05-17T13:30:00.250Z,21.73
2019-05-17T13:32:31.356Z,21.81
2019-05-17T13:35:02.436Z,21.86
2019-05-17T13:37:33.606Z,21.82
2019-05-17T13:40:05.109Z,21.83
2019-05-17T13:42:36.230Z,21.77
2019-05-17T13:45:08.582Z,21.73
2019-05-17T13:47:39.764Z,21.64
2019-05-17T13:50:11.235Z,21.61
2019-05-17T13:52:42.355Z,21.63
2019-05-17T13:55:13.678Z,22.08
2019-05-17T13:57:45.099Z,21.73
2019-05-17T14:00:18.754Z,21.70
2019-05-17T14:02:49.791Z,21.67
2019-05-17T14:05:21.177Z,21.58
2019-05-17T14:07:52.186Z,21.58
2019-05-17T14:10:27.602Z,21.57
2019-05-17T14:12:56.280Z,21.53
2019-05-17T14:15:27.349Z,21.50
2019-05-17T14:17:58.523Z,21.47
2019-05-17T14:20:29.616Z,21.43
2019-05-17T14:23:00.739Z,21.43
2019-05-17T14:25:32.134Z,21.39
2019-05-17T14:28:03.477Z,21.47
2019-05-17T14:30:34.652Z,21.37
2019-05-17T14:33:06.005Z,21.33
2019-05-17T14:35:38.042Z,21.31
2019-05-17T14:38:09.054Z,21.35
2019-05-17T14:41:05.039Z,21.31
2019-05-17T14:43:12.946Z,21.28
2019-05-17T14:45:45.567Z,21.26
2019-05-17T14:48:16.609Z,21.20
2019-05-17T14:50:47.790Z,21.13
2019-05-17T14:53:18.793Z,21.03
2019-05-17T14:55:49.996Z,21.00
2019-05-17T14:58:21.002Z,20.97
2019-05-17T15:00:52.389Z,20.92
2019-05-17T15:03:23.377Z,20.82
2019-05-17T15:05:54.467Z,20.65
2019-05-17T15:08:25.466Z,20.36
2019-05-17T15:10:56.499Z,20.14
2019-05-17T15:13:27.552Z,19.94
2019-05-17T15:15:58.633Z,19.63
2019-05-17T15:18:30.218Z,19.40
2019-05-17T15:21:01.279Z,18.94
2019-05-17T15:23:32.365Z,18.75
2019-05-17T15:26:03.438Z,18.50
2019-05-17T15:28:34.463Z,18.25
2019-05-17T15:31:05.577Z,18.06
2019-05-17T15:33:36.603Z,17.89
2019-05-17T15:36:07.638Z,17.78
2019-05-17T15:38:38.855Z,17.70
2019-05-17T15:41:10.039Z,17.71
2019-05-17T15:43:41.166Z,17.66
2019-05-17T15:46:12.222Z,17.50
2019-05-17T15:48:43.233Z,17.50
2019-05-17T15:51:15.335Z,17.50
2019-05-17T15:53:46.470Z,17.35
2019-05-17T15:56:17.558Z,17.31
2019-05-17T15:58:48.578Z,17.35
2019-05-17T16:01:19.710Z,17.26
2019-05-17T16:03:50.781Z,17.23
2019-05-17T16:06:22.027Z,17.24
2019-05-17T16:08:53.136Z,17.20
2019-05-17T16:11:24.182Z,17.19
2019-05-17T16:13:55.175Z,17.28
2019-05-17T16:16:26.272Z,17.19
2019-05-17T16:18:57.285Z,17.20
2019-05-17T16:21:28.366Z,17.20
2019-05-17T16:23:59.494Z,17.26
2019-05-17T16:26:30.607Z,17.19
2019-05-17T16:29:01.641Z,17.15
2019-05-17T16:31:32.672Z,17.17
2019-05-17T16:34:04.020Z,16.99
2019-05-17T16:36:35.284Z,16.97
2019-05-17T16:39:08.575Z,17.02
2019-05-17T16:41:39.809Z,17.09
2019-05-17T16:44:10.851Z,17.06
2019-05-17T16:46:41.954Z,17.14
2019-05-17T16:49:12.983Z,17.18
2019-05-17T16:51:45.297Z,17.16
2019-05-17T16:54:16.381Z,17.12
2019-05-17T16:56:47.429Z,17.07
2019-05-17T16:59:18.460Z,17.13
2019-05-17T17:01:49.449Z,17.15
2019-05-17T17:04:20.653Z,17.05
2019-05-17T17:06:51.750Z,17.07
2019-05-17T17:09:22.907Z,17.01
2019-05-17T17:11:54.040Z,17.05
2019-05-17T17:14:25.133Z,17.17
2019-05-17T17:16:57.238Z,17.21
2019-05-17T17:19:28.339Z,17.18
2019-05-17T17:21:59.453Z,17.17
2019-05-17T17:24:30.605Z,17.11
2019-05-17T17:27:01.617Z,17.06
2019-05-17T17:29:32.725Z,17.05
2019-05-17T17:32:03.785Z,17.04
2019-05-17T17:34:34.813Z,17.00
2019-05-17T17:37:06.181Z,17.00
2019-05-17T17:39:37.300Z,17.04
2019-05-17T17:42:08.344Z,17.02
2019-05-17T17:44:39.423Z,17.01
2019-05-17T17:47:10.496Z,17.00
2019-05-17T17:49:41.636Z,17.07
2019-05-17T17:52:13.043Z,17.14
2019-05-17T17:54:44.216Z,17.15
2019-05-17T17:57:15.759Z,17.09
2019-05-17T17:59:46.798Z,17.17
2019-05-17T18:02:17.864Z,17.15
2019-05-17T18:04:49.022Z,17.14
2019-05-17T18:07:20.260Z,17.14
2019-05-17T18:09:51.336Z,17.07
2019-05-17T18:12:22.834Z,17.05
2019-05-17T18:14:53.933Z,17.11
2019-05-17T18:17:24.955Z,17.03
2019-05-17T18:19:55.999Z,16.85
2019-05-17T18:22:27.106Z,16.96
2019-05-17T18:24:58.195Z,17.00
2019-05-17T18:27:29.275Z,17.01
2019-05-17T18:30:00.475Z,16.99
2019-05-17T18:32:31.644Z,16.96
2019-05-17T18:35:02.812Z,16.99
2019-05-17T18:37:34.034Z,16.93
2019-05-17T18:40:05.450Z,16.99
2019-05-17T18:42:37.800Z,17.00
2019-05-17T18:45:09.494Z,16.98
2019-05-17T18:47:40.585Z,16.92
2019-05-17T18:50:12.737Z,16.93
2019-05-17T18:52:43.837Z,16.88
2019-05-17T18:55:16.130Z,16.80
2019-05-17T18:57:47.248Z,16.79
2019-05-17T19:00:18.776Z,16.74
2019-05-17T19:02:49.851Z,16.71
2019-05-17T19:05:21.505Z,16.66
2019-05-17T19:07:52.673Z,16.61
2019-05-17T19:10:24.017Z,16.58
2019-05-17T19:12:55.134Z,16.57
2019-05-17T19:15:26.634Z,16.56
2019-05-17T19:17:57.803Z,16.54
2019-05-17T19:20:28.945Z,16.54
2019-05-17T19:23:00.338Z,16.39
2019-05-17T19:25:31.363Z,16.35
2019-05-17T19:28:02.495Z,16.32
2019-05-17T19:30:33.678Z,16.36
2019-05-17T19:33:04.741Z,16.28
2019-05-17T19:35:37.017Z,16.16
2019-05-17T19:38:08.130Z,16.18
2019-05-17T19:40:39.304Z,16.18
2019-05-17T19:43:10.333Z,16.21
2019-05-17T19:45:41.601Z,16.25
2019-05-17T19:48:12.732Z,16.27
2019-05-17T19:50:43.941Z,16.22
2019-05-17T19:53:16.140Z,16.26
2019-05-17T19:55:47.273Z,16.23
2019-05-17T19:58:18.649Z,16.18
2019-05-17T20:00:49.768Z,16.17
2019-05-17T20:03:20.824Z,16.12
2019-05-17T20:05:51.997Z,16.15
2019-05-17T20:08:22.976Z,16.10
2019-05-17T20:10:54.101Z,16.14
2019-05-17T20:13:25.117Z,16.13
2019-05-17T20:15:56.159Z,16.01
2019-05-17T20:18:27.183Z,15.99
2019-05-17T20:20:58.327Z,16.03
2019-05-17T20:23:29.490Z,15.99
2019-05-17T20:26:00.739Z,15.97
2019-05-17T20:28:31.857Z,15.93
2019-05-17T20:31:02.957Z,15.95
2019-05-17T20:33:34.032Z,15.96
2019-05-17T20:36:05.167Z,15.98
2019-05-17T20:38:37.104Z,15.99
2019-05-17T20:41:08.438Z,16.02
2019-05-17T20:43:39.671Z,16.05
2019-05-17T20:46:10.791Z,15.98
2019-05-17T20:48:41.886Z,15.97
2019-05-17T20:51:12.902Z,16.00
2019-05-17T20:53:43.897Z,16.00
2019-05-17T20:56:15.006Z,15.98
2019-05-17T20:58:46.414Z,15.90
2019-05-17T21:01:17.454Z,15.96
2019-05-17T21:03:48.440Z,15.92
2019-05-17T21:06:38.746Z,15.96
2019-05-17T21:09:10.396Z,15.89
2019-05-17T21:11:41.496Z,15.85
2019-05-17T21:14:12.485Z,15.90
2019-05-17T21:16:43.786Z,15.89
2019-05-17T21:19:14.802Z,15.87
2019-05-17T21:21:46.466Z,15.85
2019-05-17T21:24:17.785Z,15.80
2019-05-17T21:26:48.803Z,15.76
2019-05-17T21:29:19.913Z,15.73
2019-05-17T21:31:50.959Z,15.67
2019-05-17T21:34:21.948Z,15.68
2019-05-17T21:36:53.376Z,15.75
2019-05-17T21:39:24.763Z,15.66
2019-05-17T21:41:55.822Z,15.64
2019-05-17T21:44:26.876Z,15.54
2019-05-17T21:47:04.647Z,15.55
2019-05-17T21:49:30.681Z,15.66
2019-05-17T21:52:01.781Z,15.64
2019-05-17T21:54:32.773Z,15.62
2019-05-17T21:57:03.808Z,15.53
2019-05-17T21:59:34.825Z,15.55
2019-05-17T22:02:06.064Z,15.51
2019-05-17T22:04:37.223Z,15.49
2019-05-17T22:07:08.386Z,15.54
2019-05-17T22:09:39.375Z,15.54
2019-05-17T22:12:12.402Z,15.45
2019-05-17T22:14:43.493Z,15.54
2019-05-17T22:17:14.628Z,15.54
2019-05-17T22:19:46.481Z,15.49
2019-05-17T22:22:17.527Z,15.51
2019-05-17T22:24:48.504Z,15.47
2019-05-17T22:27:19.542Z,15.47
2019-05-17T22:29:50.607Z,15.51
2019-05-17T22:32:21.646Z,15.41
2019-05-17T22:34:52.649Z,15.39
2019-05-17T22:37:23.780Z,15.41
2019-05-17T22:39:54.761Z,15.37
2019-05-17T22:42:25.806Z,15.40
2019-05-17T22:44:56.786Z,15.37
2019-05-17T22:47:27.918Z,15.38
2019-05-17T22:49:58.907Z,15.36
2019-05-17T22:52:29.956Z,15.32
2019-05-17T22:55:01.061Z,15.25
2019-05-17T22:57:32.293Z,15.13
2019-05-17T23:00:04.839Z,15.21
2019-05-17T23:02:37.787Z,15.26
2019-05-17T23:05:09.629Z,15.30
2019-05-17T23:07:40.668Z,15.36
2019-05-17T23:10:12.001Z,15.39
2019-05-17T23:12:43.017Z,15.37
2019-05-17T23:15:14.634Z,15.25
2019-05-17T23:17:46.629Z,15.28
2019-05-17T23:20:19.287Z,15.27
2019-05-17T23:22:50.322Z,15.25
2019-05-17T23:25:21.459Z,15.31
2019-05-17T23:27:52.544Z,15.24
2019-05-17T23:30:23.618Z,15.33
2019-05-17T23:32:54.644Z,15.35
2019-05-17T23:35:25.626Z,15.35
2019-05-17T23:37:57.199Z,15.28
2019-05-17T23:40:28.185Z,15.28
2019-05-17T23:42:59.207Z,15.25
2019-05-17T23:45:30.483Z,15.24
2019-05-17T23:48:01.520Z,15.31
2019-05-17T23:50:32.533Z,15.30
2019-05-17T23:53:03.560Z,15.31
2019-05-17T23:55:34.604Z,15.32
2019-05-17T23:58:05.694Z,15.30
